sensor_id;sensor_type;location;lat;lon;timestamp;temperature;humidity
25250;DHT22;13201;51.148;13.738;2023-09-19T00:01:57;18.70;99.90
25250;DHT22;13201;51.148;13.738;2023-09-19T00:04:23;18.50;99.90
25250;DHT22;13201;51.148;13.738;2023-09-19T00:06:54;18.60;99.90
25250;DHT22;13201;51.148;13.738;2023-09-19T00:09:20;18.60;99.90
25250;DHT22;13201;51.148;13.738;2023-09-19T00:11:45;18.50;99.90
25250;DHT22;13201;51.148;13.738;2023-09-19T00:14:14;18.60;99.90
25250;DHT22;13201;51.148;13.738;2023-09-19T00:16:40;18.50;99.90
25250;DHT22;13201;51.148;13.738;2023-09-19T00:19:06;18.50;99.90
25250;DHT22;13201;51.148;13.738;2023-09-19T00:21:32;18.70;99.90
25250;DHT22;13201;51.148;13.738;2023-09-19T00:23:58;18.70;99.90
25250;DHT22;13201;51.148;13.738;2023-09-19T00:26:24;18.70;99.90
25250;DHT22;13201;51.148;13.738;2023-09-19T00:28:52;18.60;99.90
25250;DHT22;13201;51.148;13.738;2023-09-19T00:31:18;18.60;99.90
25250;DHT22;13201;51.148;13.738;2023-09-19T00:33:44;18.60;99.90
25250;DHT22;13201;51.148;13.738;2023-09-19T00:36:09;18.60;99.90
25250;DHT22;13201;51.148;13.738;2023-09-19T00:38:35;18.60;99.90
25250;DHT22;13201;51.148;13.738;2023-09-19T00:41:01;18.60;99.90
25250;DHT22;13201;51.148;13.738;2023-09-19T00:43:27;18.60;99.90
25250;DHT22;13201;51.148;13.738;2023-09-19T00:45:54;18.50;99.90
25250;DHT22;13201;51.148;13.738;2023-09-19T00:48:24;18.50;99.90
25250;DHT22;13201;51.148;13.738;2023-09-19T00:50:52;18.50;99.90
25250;DHT22;13201;51.148;13.738;2023-09-19T00:53:21;18.50;99.90
25250;DHT22;13201;51.148;13.738;2023-09-19T00:55:49;18.60;99.90
25250;DHT22;13201;51.148;13.738;2023-09-19T00:58:17;18.60;99.90
25250;DHT22;13201;51.148;13.738;2023-09-19T01:00:43;18.70;99.90
25250;DHT22;13201;51.148;13.738;2023-09-19T01:03:10;18.70;99.90
25250;DHT22;13201;51.148;13.738;2023-09-19T01:32:03;17.80;99.90
25250;DHT22;13201;51.148;13.738;2023-09-19T01:34:55;17.90;99.90
25250;DHT22;13201;51.148;13.738;2023-09-19T01:37:31;18.00;99.90
25250;DHT22;13201;51.148;13.738;2023-09-19T01:40:10;18.20;99.90
25250;DHT22;13201;51.148;13.738;2023-09-19T01:46:12;18.30;99.90
25250;DHT22;13201;51.148;13.738;2023-09-19T01:51:14;18.50;99.90
25250;DHT22;13201;51.148;13.738;2023-09-19T01:56:23;18.60;99.90
25250;DHT22;13201;51.148;13.738;2023-09-19T01:58:55;18.60;99.90
25250;DHT22;13201;51.148;13.738;2023-09-19T02:01:24;18.50;99.90
25250;DHT22;13201;51.148;13.738;2023-09-19T02:03:50;18.50;99.90
25250;DHT22;13201;51.148;13.738;2023-09-19T02:06:18;18.60;99.90
25250;DHT22;13201;51.148;13.738;2023-09-19T02:08:45;18.50;99.90
25250;DHT22;13201;51.148;13.738;2023-09-19T02:11:14;18.50;99.90
25250;DHT22;13201;51.148;13.738;2023-09-19T02:13:40;18.60;99.90
25250;DHT22;13201;51.148;13.738;2023-09-19T02:16:06;18.60;99.90
25250;DHT22;13201;51.148;13.738;2023-09-19T02:18:33;18.60;99.90
25250;DHT22;13201;51.148;13.738;2023-09-19T02:21:02;18.60;99.90
25250;DHT22;13201;51.148;13.738;2023-09-19T02:23:27;18.60;99.90
25250;DHT22;13201;51.148;13.738;2023-09-19T02:25:56;18.70;99.90
25250;DHT22;13201;51.148;13.738;2023-09-19T02:28:26;18.80;99.90
25250;DHT22;13201;51.148;13.738;2023-09-19T02:30:59;18.80;99.90
25250;DHT22;13201;51.148;13.738;2023-09-19T02:33:24;18.70;99.90
25250;DHT22;13201;51.148;13.738;2023-09-19T02:35:55;18.80;99.90
25250;DHT22;13201;51.148;13.738;2023-09-19T02:38:23;18.70;99.90
25250;DHT22;13201;51.148;13.738;2023-09-19T02:40:50;18.70;99.90
25250;DHT22;13201;51.148;13.738;2023-09-19T02:43:16;18.60;99.90
25250;DHT22;13201;51.148;13.738;2023-09-19T02:45:42;18.60;99.90
25250;DHT22;13201;51.148;13.738;2023-09-19T02:48:08;18.70;99.90
25250;DHT22;13201;51.148;13.738;2023-09-19T02:50:34;18.70;99.90
25250;DHT22;13201;51.148;13.738;2023-09-19T02:53:00;18.70;99.90
25250;DHT22;13201;51.148;13.738;2023-09-19T02:55:26;18.80;99.90
25250;DHT22;13201;51.148;13.738;2023-09-19T02:57:52;18.70;99.90
25250;DHT22;13201;51.148;13.738;2023-09-19T03:00:20;18.60;99.90
25250;DHT22;13201;51.148;13.738;2023-09-19T03:02:53;18.70;99.90
25250;DHT22;13201;51.148;13.738;2023-09-19T03:05:19;18.60;99.90
25250;DHT22;13201;51.148;13.738;2023-09-19T03:07:47;18.60;99.90
25250;DHT22;13201;51.148;13.738;2023-09-19T03:10:17;18.60;99.90
25250;DHT22;13201;51.148;13.738;2023-09-19T03:12:43;18.50;99.90
25250;DHT22;13201;51.148;13.738;2023-09-19T03:15:09;18.50;99.90
25250;DHT22;13201;51.148;13.738;2023-09-19T03:17:35;18.50;99.90
25250;DHT22;13201;51.148;13.738;2023-09-19T03:20:02;18.50;99.90
25250;DHT22;13201;51.148;13.738;2023-09-19T03:22:28;18.50;99.90
25250;DHT22;13201;51.148;13.738;2023-09-19T03:24:53;18.50;99.90
25250;DHT22;13201;51.148;13.738;2023-09-19T03:27:19;18.50;99.90
25250;DHT22;13201;51.148;13.738;2023-09-19T03:29:46;18.50;99.90
25250;DHT22;13201;51.148;13.738;2023-09-19T03:32:12;18.60;99.90
25250;DHT22;13201;51.148;13.738;2023-09-19T03:34:38;18.60;99.90
25250;DHT22;13201;51.148;13.738;2023-09-19T03:37:11;18.50;99.90
25250;DHT22;13201;51.148;13.738;2023-09-19T03:39:36;18.40;99.90
25250;DHT22;13201;51.148;13.738;2023-09-19T03:42:03;18.40;99.90
25250;DHT22;13201;51.148;13.738;2023-09-19T03:44:30;18.40;99.90
25250;DHT22;13201;51.148;13.738;2023-09-19T03:46:56;18.50;99.90
25250;DHT22;13201;51.148;13.738;2023-09-19T03:49:22;18.60;99.90
25250;DHT22;13201;51.148;13.738;2023-09-19T03:51:48;18.50;99.90
25250;DHT22;13201;51.148;13.738;2023-09-19T03:54:14;18.40;99.90
25250;DHT22;13201;51.148;13.738;2023-09-19T03:56:40;18.40;99.90
25250;DHT22;13201;51.148;13.738;2023-09-19T03:59:05;18.40;99.90
25250;DHT22;13201;51.148;13.738;2023-09-19T04:01:31;18.50;99.90
25250;DHT22;13201;51.148;13.738;2023-09-19T04:03:59;18.50;99.90
25250;DHT22;13201;51.148;13.738;2023-09-19T04:06:36;18.30;99.90
25250;DHT22;13201;51.148;13.738;2023-09-19T04:09:03;18.30;99.90
25250;DHT22;13201;51.148;13.738;2023-09-19T04:11:29;18.30;99.90
25250;DHT22;13201;51.148;13.738;2023-09-19T04:13:54;18.10;99.90
25250;DHT22;13201;51.148;13.738;2023-09-19T04:16:20;18.10;99.90
25250;DHT22;13201;51.148;13.738;2023-09-19T04:18:46;18.10;99.90
25250;DHT22;13201;51.148;13.738;2023-09-19T04:21:11;18.10;99.90
25250;DHT22;13201;51.148;13.738;2023-09-19T04:23:37;18.00;99.90
25250;DHT22;13201;51.148;13.738;2023-09-19T04:26:03;18.00;99.90
25250;DHT22;13201;51.148;13.738;2023-09-19T04:28:31;18.00;99.90
25250;DHT22;13201;51.148;13.738;2023-09-19T04:30:59;17.90;99.90
25250;DHT22;13201;51.148;13.738;2023-09-19T04:33:26;18.00;99.90
25250;DHT22;13201;51.148;13.738;2023-09-19T04:35:55;17.90;99.90
25250;DHT22;13201;51.148;13.738;2023-09-19T04:38:21;18.00;99.90
25250;DHT22;13201;51.148;13.738;2023-09-19T04:40:47;17.90;99.90
25250;DHT22;13201;51.148;13.738;2023-09-19T04:43:13;18.00;99.90
25250;DHT22;13201;51.148;13.738;2023-09-19T04:45:39;18.00;99.90
25250;DHT22;13201;51.148;13.738;2023-09-19T04:48:05;17.90;99.90
25250;DHT22;13201;51.148;13.738;2023-09-19T04:50:34;17.90;99.90
25250;DHT22;13201;51.148;13.738;2023-09-19T04:53:00;18.00;99.90
25250;DHT22;13201;51.148;13.738;2023-09-19T04:55:26;18.00;99.90
25250;DHT22;13201;51.148;13.738;2023-09-19T04:57:53;18.00;99.90
25250;DHT22;13201;51.148;13.738;2023-09-19T05:00:23;18.00;99.90
25250;DHT22;13201;51.148;13.738;2023-09-19T05:02:50;17.90;99.90
25250;DHT22;13201;51.148;13.738;2023-09-19T05:05:17;18.00;99.90
25250;DHT22;13201;51.148;13.738;2023-09-19T05:07:43;17.80;99.90
25250;DHT22;13201;51.148;13.738;2023-09-19T05:10:12;17.90;99.90
25250;DHT22;13201;51.148;13.738;2023-09-19T05:12:39;17.90;99.90
25250;DHT22;13201;51.148;13.738;2023-09-19T05:15:06;17.80;99.90
25250;DHT22;13201;51.148;13.738;2023-09-19T05:17:35;17.90;99.90
25250;DHT22;13201;51.148;13.738;2023-09-19T05:20:02;17.90;99.90
25250;DHT22;13201;51.148;13.738;2023-09-19T05:22:43;17.90;99.90
25250;DHT22;13201;51.148;13.738;2023-09-19T05:25:10;17.90;99.90
25250;DHT22;13201;51.148;13.738;2023-09-19T05:27:36;17.90;99.90
25250;DHT22;13201;51.148;13.738;2023-09-19T05:30:02;17.90;99.90
25250;DHT22;13201;51.148;13.738;2023-09-19T05:32:28;17.90;99.90
25250;DHT22;13201;51.148;13.738;2023-09-19T05:34:53;18.00;99.90
25250;DHT22;13201;51.148;13.738;2023-09-19T05:37:22;18.10;99.90
25250;DHT22;13201;51.148;13.738;2023-09-19T05:39:49;18.00;99.90
25250;DHT22;13201;51.148;13.738;2023-09-19T05:42:14;18.00;99.90
25250;DHT22;13201;51.148;13.738;2023-09-19T05:44:40;18.00;99.90
25250;DHT22;13201;51.148;13.738;2023-09-19T05:47:06;18.00;99.90
25250;DHT22;13201;51.148;13.738;2023-09-19T05:49:35;18.00;99.90
25250;DHT22;13201;51.148;13.738;2023-09-19T05:52:07;18.00;99.90
25250;DHT22;13201;51.148;13.738;2023-09-19T05:54:33;18.10;99.90
25250;DHT22;13201;51.148;13.738;2023-09-19T05:57:00;18.00;99.90
25250;DHT22;13201;51.148;13.738;2023-09-19T05:59:27;18.10;99.90
25250;DHT22;13201;51.148;13.738;2023-09-19T06:01:53;18.20;99.90
25250;DHT22;13201;51.148;13.738;2023-09-19T06:04:18;18.20;99.90
25250;DHT22;13201;51.148;13.738;2023-09-19T06:06:47;18.20;99.90
25250;DHT22;13201;51.148;13.738;2023-09-19T06:09:14;18.20;99.90
25250;DHT22;13201;51.148;13.738;2023-09-19T06:11:42;18.20;99.90
25250;DHT22;13201;51.148;13.738;2023-09-19T06:14:07;18.30;99.90
25250;DHT22;13201;51.148;13.738;2023-09-19T06:16:36;18.30;99.90
25250;DHT22;13201;51.148;13.738;2023-09-19T06:19:03;18.30;99.90
25250;DHT22;13201;51.148;13.738;2023-09-19T06:21:32;18.30;99.90
25250;DHT22;13201;51.148;13.738;2023-09-19T06:23:57;18.30;99.90
25250;DHT22;13201;51.148;13.738;2023-09-19T06:26:24;18.40;99.90
25250;DHT22;13201;51.148;13.738;2023-09-19T06:28:52;18.40;99.90
25250;DHT22;13201;51.148;13.738;2023-09-19T06:31:18;18.40;99.90
25250;DHT22;13201;51.148;13.738;2023-09-19T06:33:43;18.40;99.90
25250;DHT22;13201;51.148;13.738;2023-09-19T06:36:09;18.40;99.90
25250;DHT22;13201;51.148;13.738;2023-09-19T06:38:36;18.50;99.90
25250;DHT22;13201;51.148;13.738;2023-09-19T06:41:05;18.50;99.90
25250;DHT22;13201;51.148;13.738;2023-09-19T06:43:31;18.50;99.90
25250;DHT22;13201;51.148;13.738;2023-09-19T06:45:58;18.60;99.90
25250;DHT22;13201;51.148;13.738;2023-09-19T06:48:25;18.70;99.90
25250;DHT22;13201;51.148;13.738;2023-09-19T06:50:50;18.80;99.90
25250;DHT22;13201;51.148;13.738;2023-09-19T06:53:18;18.80;99.90
25250;DHT22;13201;51.148;13.738;2023-09-19T06:55:44;18.70;99.90
25250;DHT22;13201;51.148;13.738;2023-09-19T06:58:10;18.80;99.90
25250;DHT22;13201;51.148;13.738;2023-09-19T07:00:36;18.80;99.90
25250;DHT22;13201;51.148;13.738;2023-09-19T07:03:06;18.80;99.90
25250;DHT22;13201;51.148;13.738;2023-09-19T07:05:39;18.90;99.90
25250;DHT22;13201;51.148;13.738;2023-09-19T07:08:07;19.00;99.90
25250;DHT22;13201;51.148;13.738;2023-09-19T07:10:33;19.10;99.90
25250;DHT22;13201;51.148;13.738;2023-09-19T07:13:00;19.20;99.90
25250;DHT22;13201;51.148;13.738;2023-09-19T07:15:27;19.10;99.90
25250;DHT22;13201;51.148;13.738;2023-09-19T07:17:53;19.10;99.90
25250;DHT22;13201;51.148;13.738;2023-09-19T07:20:20;19.10;99.90
25250;DHT22;13201;51.148;13.738;2023-09-19T07:22:46;19.30;99.90
25250;DHT22;13201;51.148;13.738;2023-09-19T07:25:13;19.30;99.90
25250;DHT22;13201;51.148;13.738;2023-09-19T07:27:42;19.40;99.90
25250;DHT22;13201;51.148;13.738;2023-09-19T07:30:08;19.50;99.90
25250;DHT22;13201;51.148;13.738;2023-09-19T07:32:35;19.40;99.90
25250;DHT22;13201;51.148;13.738;2023-09-19T07:35:05;19.40;99.90
25250;DHT22;13201;51.148;13.738;2023-09-19T07:37:31;19.60;99.90
25250;DHT22;13201;51.148;13.738;2023-09-19T07:39:59;19.80;99.90
25250;DHT22;13201;51.148;13.738;2023-09-19T07:42:26;19.70;99.90
25250;DHT22;13201;51.148;13.738;2023-09-19T07:44:52;19.50;99.90
25250;DHT22;13201;51.148;13.738;2023-09-19T07:47:19;19.70;99.90
25250;DHT22;13201;51.148;13.738;2023-09-19T07:49:47;19.70;99.90
25250;DHT22;13201;51.148;13.738;2023-09-19T07:52:13;19.80;99.90
25250;DHT22;13201;51.148;13.738;2023-09-19T07:54:39;19.80;99.90
25250;DHT22;13201;51.148;13.738;2023-09-19T07:57:07;19.80;99.90
25250;DHT22;13201;51.148;13.738;2023-09-19T07:59:32;19.60;99.90
25250;DHT22;13201;51.148;13.738;2023-09-19T08:01:58;19.60;99.90
25250;DHT22;13201;51.148;13.738;2023-09-19T08:04:24;19.70;99.90
25250;DHT22;13201;51.148;13.738;2023-09-19T08:06:51;19.50;99.90
25250;DHT22;13201;51.148;13.738;2023-09-19T08:09:17;19.60;99.90
25250;DHT22;13201;51.148;13.738;2023-09-19T08:11:47;19.60;99.90
25250;DHT22;13201;51.148;13.738;2023-09-19T08:14:13;19.60;99.90
25250;DHT22;13201;51.148;13.738;2023-09-19T08:16:40;19.80;99.90
25250;DHT22;13201;51.148;13.738;2023-09-19T08:19:05;19.90;99.90
25250;DHT22;13201;51.148;13.738;2023-09-19T08:21:31;19.80;99.90
25250;DHT22;13201;51.148;13.738;2023-09-19T08:23:57;19.90;99.90
25250;DHT22;13201;51.148;13.738;2023-09-19T08:26:23;19.80;99.90
25250;DHT22;13201;51.148;13.738;2023-09-19T08:28:50;19.80;99.90
25250;DHT22;13201;51.148;13.738;2023-09-19T08:31:16;19.70;99.90
25250;DHT22;13201;51.148;13.738;2023-09-19T08:33:42;19.90;99.90
25250;DHT22;13201;51.148;13.738;2023-09-19T08:36:10;20.10;99.90
25250;DHT22;13201;51.148;13.738;2023-09-19T08:38:37;20.10;99.90
25250;DHT22;13201;51.148;13.738;2023-09-19T08:41:07;20.30;99.90
25250;DHT22;13201;51.148;13.738;2023-09-19T08:43:34;20.30;99.90
25250;DHT22;13201;51.148;13.738;2023-09-19T08:46:20;20.20;99.90
25250;DHT22;13201;51.148;13.738;2023-09-19T08:49:13;20.20;99.90
25250;DHT22;13201;51.148;13.738;2023-09-19T08:51:46;20.40;99.90
25250;DHT22;13201;51.148;13.738;2023-09-19T08:54:24;20.50;99.90
25250;DHT22;13201;51.148;13.738;2023-09-19T08:56:54;20.30;99.90
25250;DHT22;13201;51.148;13.738;2023-09-19T08:59:23;20.20;99.90
25250;DHT22;13201;51.148;13.738;2023-09-19T09:01:56;20.00;99.90
25250;DHT22;13201;51.148;13.738;2023-09-19T09:04:22;20.20;99.90
25250;DHT22;13201;51.148;13.738;2023-09-19T09:06:49;20.00;99.90
25250;DHT22;13201;51.148;13.738;2023-09-19T09:09:19;20.30;99.90
25250;DHT22;13201;51.148;13.738;2023-09-19T09:11:45;20.40;99.90
25250;DHT22;13201;51.148;13.738;2023-09-19T09:14:14;20.70;99.90
25250;DHT22;13201;51.148;13.738;2023-09-19T09:16:39;20.90;99.90
25250;DHT22;13201;51.148;13.738;2023-09-19T09:19:05;20.90;99.90
25250;DHT22;13201;51.148;13.738;2023-09-19T09:21:31;20.50;99.90
25250;DHT22;13201;51.148;13.738;2023-09-19T09:24:30;20.40;99.90
25250;DHT22;13201;51.148;13.738;2023-09-19T09:26:59;20.70;99.90
25250;DHT22;13201;51.148;13.738;2023-09-19T09:29:45;20.70;99.90
25250;DHT22;13201;51.148;13.738;2023-09-19T09:32:37;20.70;99.90
25250;DHT22;13201;51.148;13.738;2023-09-19T09:35:07;21.10;99.90
25250;DHT22;13201;51.148;13.738;2023-09-19T09:37:36;21.10;99.90
25250;DHT22;13201;51.148;13.738;2023-09-19T09:40:04;21.10;99.90
25250;DHT22;13201;51.148;13.738;2023-09-19T09:42:42;21.20;99.90
25250;DHT22;13201;51.148;13.738;2023-09-19T09:45:22;21.40;99.90
25250;DHT22;13201;51.148;13.738;2023-09-19T09:48:09;21.30;99.90
25250;DHT22;13201;51.148;13.738;2023-09-19T09:50:47;21.70;99.90
25250;DHT22;13201;51.148;13.738;2023-09-19T09:53:24;21.40;99.90
25250;DHT22;13201;51.148;13.738;2023-09-19T09:56:03;21.90;99.90
25250;DHT22;13201;51.148;13.738;2023-09-19T09:58:37;22.00;99.90
25250;DHT22;13201;51.148;13.738;2023-09-19T10:01:06;21.90;99.90
25250;DHT22;13201;51.148;13.738;2023-09-19T10:03:37;21.70;99.90
25250;DHT22;13201;51.148;13.738;2023-09-19T10:06:12;21.40;99.90
25250;DHT22;13201;51.148;13.738;2023-09-19T10:08:59;21.50;99.90
25250;DHT22;13201;51.148;13.738;2023-09-19T10:11:30;21.40;99.90
25250;DHT22;13201;51.148;13.738;2023-09-19T10:13:57;21.60;99.90
25250;DHT22;13201;51.148;13.738;2023-09-19T10:16:23;21.80;99.90
25250;DHT22;13201;51.148;13.738;2023-09-19T10:18:51;21.80;99.90
25250;DHT22;13201;51.148;13.738;2023-09-19T10:21:19;21.50;99.90
25250;DHT22;13201;51.148;13.738;2023-09-19T10:23:49;21.70;99.90
25250;DHT22;13201;51.148;13.738;2023-09-19T10:26:18;22.10;99.90
25250;DHT22;13201;51.148;13.738;2023-09-19T10:28:46;22.30;99.90
25250;DHT22;13201;51.148;13.738;2023-09-19T10:31:19;22.50;99.90
25250;DHT22;13201;51.148;13.738;2023-09-19T10:33:47;22.40;99.90
25250;DHT22;13201;51.148;13.738;2023-09-19T10:36:15;22.00;99.90
25250;DHT22;13201;51.148;13.738;2023-09-19T10:38:42;22.20;99.90
25250;DHT22;13201;51.148;13.738;2023-09-19T10:41:10;22.40;99.90
25250;DHT22;13201;51.148;13.738;2023-09-19T10:43:38;22.70;99.90
25250;DHT22;13201;51.148;13.738;2023-09-19T10:46:08;22.60;99.90
25250;DHT22;13201;51.148;13.738;2023-09-19T10:48:38;22.70;99.90
25250;DHT22;13201;51.148;13.738;2023-09-19T10:51:09;22.50;99.90
25250;DHT22;13201;51.148;13.738;2023-09-19T10:53:55;22.70;99.90
25250;DHT22;13201;51.148;13.738;2023-09-19T10:56:36;23.00;99.90
25250;DHT22;13201;51.148;13.738;2023-09-19T10:59:09;22.90;99.90
25250;DHT22;13201;51.148;13.738;2023-09-19T11:01:56;22.70;99.90
25250;DHT22;13201;51.148;13.738;2023-09-19T11:04:30;22.50;99.90
25250;DHT22;13201;51.148;13.738;2023-09-19T11:09:51;22.90;99.90
25250;DHT22;13201;51.148;13.738;2023-09-19T11:15:07;22.80;99.90
25250;DHT22;13201;51.148;13.738;2023-09-19T11:17:38;22.80;99.90
25250;DHT22;13201;51.148;13.738;2023-09-19T11:25:43;22.60;99.90
25250;DHT22;13201;51.148;13.738;2023-09-19T11:30:51;23.10;99.90
25250;DHT22;13201;51.148;13.738;2023-09-19T11:33:28;23.50;99.90
25250;DHT22;13201;51.148;13.738;2023-09-19T11:49:26;23.00;99.90
25250;DHT22;13201;51.148;13.738;2023-09-19T11:51:56;22.90;99.90
25250;DHT22;13201;51.148;13.738;2023-09-19T11:54:22;23.50;99.90
25250;DHT22;13201;51.148;13.738;2023-09-19T11:56:50;23.80;99.90
25250;DHT22;13201;51.148;13.738;2023-09-19T11:59:20;23.40;99.90
25250;DHT22;13201;51.148;13.738;2023-09-19T12:02:06;23.30;99.90
25250;DHT22;13201;51.148;13.738;2023-09-19T12:04:40;23.10;99.90
25250;DHT22;13201;51.148;13.738;2023-09-19T12:07:11;23.60;99.90
25250;DHT22;13201;51.148;13.738;2023-09-19T12:09:45;23.70;99.90
25250;DHT22;13201;51.148;13.738;2023-09-19T12:12:26;23.70;99.80
25250;DHT22;13201;51.148;13.738;2023-09-19T12:15:01;23.50;99.90
25250;DHT22;13201;51.148;13.738;2023-09-19T12:17:39;23.20;99.30
25250;DHT22;13201;51.148;13.738;2023-09-19T12:20:07;23.80;99.30
25250;DHT22;13201;51.148;13.738;2023-09-19T12:22:39;24.10;99.00
25250;DHT22;13201;51.148;13.738;2023-09-19T12:25:06;24.30;98.20
25250;DHT22;13201;51.148;13.738;2023-09-19T12:27:44;24.00;98.40
25250;DHT22;13201;51.148;13.738;2023-09-19T12:30:15;23.60;98.60
25250;DHT22;13201;51.148;13.738;2023-09-19T12:32:43;23.70;99.10
25250;DHT22;13201;51.148;13.738;2023-09-19T12:35:09;23.80;98.70
25250;DHT22;13201;51.148;13.738;2023-09-19T12:37:45;23.70;98.30
25250;DHT22;13201;51.148;13.738;2023-09-19T12:40:19;23.80;98.90
25250;DHT22;13201;51.148;13.738;2023-09-19T12:42:48;23.70;98.40
25250;DHT22;13201;51.148;13.738;2023-09-19T12:45:15;23.50;98.30
25250;DHT22;13201;51.148;13.738;2023-09-19T12:51:11;23.60;98.40
25250;DHT22;13201;51.148;13.738;2023-09-19T12:56:08;23.70;98.00
25250;DHT22;13201;51.148;13.738;2023-09-19T12:58:57;23.70;98.70
25250;DHT22;13201;51.148;13.738;2023-09-19T13:01:26;23.90;98.80
25250;DHT22;13201;51.148;13.738;2023-09-19T13:04:15;23.90;98.40
25250;DHT22;13201;51.148;13.738;2023-09-19T13:06:47;23.50;97.70
25250;DHT22;13201;51.148;13.738;2023-09-19T13:09:18;24.10;98.00
25250;DHT22;13201;51.148;13.738;2023-09-19T13:11:45;24.30;97.80
25250;DHT22;13201;51.148;13.738;2023-09-19T13:17:04;24.30;97.80
25250;DHT22;13201;51.148;13.738;2023-09-19T13:19:42;23.90;97.90
25250;DHT22;13201;51.148;13.738;2023-09-19T13:22:45;24.20;96.60
25250;DHT22;13201;51.148;13.738;2023-09-19T13:25:15;24.40;96.90
25250;DHT22;13201;51.148;13.738;2023-09-19T13:27:50;24.60;96.80
25250;DHT22;13201;51.148;13.738;2023-09-19T13:30:23;24.10;96.40
25250;DHT22;13201;51.148;13.738;2023-09-19T13:32:51;23.60;96.80
25250;DHT22;13201;51.148;13.738;2023-09-19T13:35:18;23.90;97.30
25250;DHT22;13201;51.148;13.738;2023-09-19T13:37:44;24.40;96.90
25250;DHT22;13201;51.148;13.738;2023-09-19T13:40:17;24.40;96.20
25250;DHT22;13201;51.148;13.738;2023-09-19T13:42:43;24.50;96.00
25250;DHT22;13201;51.148;13.738;2023-09-19T13:45:09;24.70;95.70
25250;DHT22;13201;51.148;13.738;2023-09-19T13:47:40;24.60;95.50
25250;DHT22;13201;51.148;13.738;2023-09-19T13:50:06;24.40;95.70
25250;DHT22;13201;51.148;13.738;2023-09-19T13:52:33;24.60;96.00
25250;DHT22;13201;51.148;13.738;2023-09-19T13:54:59;24.30;96.70
25250;DHT22;13201;51.148;13.738;2023-09-19T13:57:25;24.60;96.20
25250;DHT22;13201;51.148;13.738;2023-09-19T13:59:52;24.20;96.30
25250;DHT22;13201;51.148;13.738;2023-09-19T14:02:19;24.20;95.40
25250;DHT22;13201;51.148;13.738;2023-09-19T14:04:45;23.90;95.80
25250;DHT22;13201;51.148;13.738;2023-09-19T14:07:10;24.30;96.70
25250;DHT22;13201;51.148;13.738;2023-09-19T14:09:37;24.80;96.90
25250;DHT22;13201;51.148;13.738;2023-09-19T14:12:03;24.20;96.70
25250;DHT22;13201;51.148;13.738;2023-09-19T14:14:28;24.30;96.20
25250;DHT22;13201;51.148;13.738;2023-09-19T14:16:54;24.20;96.10
25250;DHT22;13201;51.148;13.738;2023-09-19T14:19:20;24.40;96.30
25250;DHT22;13201;51.148;13.738;2023-09-19T14:21:46;24.60;95.90
25250;DHT22;13201;51.148;13.738;2023-09-19T14:24:17;25.30;95.30
25250;DHT22;13201;51.148;13.738;2023-09-19T14:26:43;24.70;96.00
25250;DHT22;13201;51.148;13.738;2023-09-19T14:29:09;24.60;95.20
25250;DHT22;13201;51.148;13.738;2023-09-19T14:31:38;24.70;95.40
25250;DHT22;13201;51.148;13.738;2023-09-19T14:34:05;25.00;95.50
25250;DHT22;13201;51.148;13.738;2023-09-19T14:36:31;25.20;95.70
25250;DHT22;13201;51.148;13.738;2023-09-19T14:38:57;25.00;95.00
25250;DHT22;13201;51.148;13.738;2023-09-19T14:41:23;26.00;94.80
25250;DHT22;13201;51.148;13.738;2023-09-19T14:43:51;26.50;94.60
25250;DHT22;13201;51.148;13.738;2023-09-19T14:46:17;27.00;93.40
25250;DHT22;13201;51.148;13.738;2023-09-19T14:48:44;26.90;93.20
25250;DHT22;13201;51.148;13.738;2023-09-19T14:51:13;27.30;93.10
25250;DHT22;13201;51.148;13.738;2023-09-19T14:53:42;26.30;93.30
25250;DHT22;13201;51.148;13.738;2023-09-19T14:56:09;26.80;93.10
25250;DHT22;13201;51.148;13.738;2023-09-19T14:58:34;27.10;93.40
25250;DHT22;13201;51.148;13.738;2023-09-19T15:01:11;26.90;92.70
25250;DHT22;13201;51.148;13.738;2023-09-19T15:03:38;26.50;92.40
25250;DHT22;13201;51.148;13.738;2023-09-19T15:06:06;25.50;93.40
25250;DHT22;13201;51.148;13.738;2023-09-19T15:08:34;25.70;93.20
25250;DHT22;13201;51.148;13.738;2023-09-19T15:11:01;25.30;93.70
25250;DHT22;13201;51.148;13.738;2023-09-19T15:13:33;24.60;93.60
25250;DHT22;13201;51.148;13.738;2023-09-19T15:16:06;25.30;94.00
25250;DHT22;13201;51.148;13.738;2023-09-19T15:18:39;25.60;93.00
25250;DHT22;13201;51.148;13.738;2023-09-19T15:21:06;25.60;93.20
25250;DHT22;13201;51.148;13.738;2023-09-19T15:23:33;26.10;93.50
25250;DHT22;13201;51.148;13.738;2023-09-19T15:26:11;26.50;92.90
25250;DHT22;13201;51.148;13.738;2023-09-19T15:28:37;26.70;92.10
25250;DHT22;13201;51.148;13.738;2023-09-19T15:31:11;26.80;92.50
25250;DHT22;13201;51.148;13.738;2023-09-19T15:33:37;26.60;91.40
25250;DHT22;13201;51.148;13.738;2023-09-19T15:36:04;26.50;91.20
25250;DHT22;13201;51.148;13.738;2023-09-19T15:38:31;26.40;91.10
25250;DHT22;13201;51.148;13.738;2023-09-19T15:41:00;26.00;90.90
25250;DHT22;13201;51.148;13.738;2023-09-19T15:43:25;25.40;90.60
25250;DHT22;13201;51.148;13.738;2023-09-19T15:45:51;25.60;91.20
25250;DHT22;13201;51.148;13.738;2023-09-19T15:48:17;25.70;90.20
25250;DHT22;13201;51.148;13.738;2023-09-19T15:50:43;25.40;90.70
25250;DHT22;13201;51.148;13.738;2023-09-19T15:53:10;25.50;90.60
25250;DHT22;13201;51.148;13.738;2023-09-19T15:55:41;25.10;90.10
25250;DHT22;13201;51.148;13.738;2023-09-19T15:58:07;25.20;90.30
25250;DHT22;13201;51.148;13.738;2023-09-19T16:00:33;25.20;90.40
25250;DHT22;13201;51.148;13.738;2023-09-19T16:03:04;25.20;90.20
25250;DHT22;13201;51.148;13.738;2023-09-19T16:05:37;25.10;90.50
25250;DHT22;13201;51.148;13.738;2023-09-19T16:08:06;24.90;90.30
25250;DHT22;13201;51.148;13.738;2023-09-19T16:10:36;24.40;90.60
25250;DHT22;13201;51.148;13.738;2023-09-19T16:13:05;24.60;91.30
25250;DHT22;13201;51.148;13.738;2023-09-19T16:15:30;24.50;91.00
25250;DHT22;13201;51.148;13.738;2023-09-19T16:17:56;24.20;91.20
25250;DHT22;13201;51.148;13.738;2023-09-19T16:20:22;24.00;91.70
25250;DHT22;13201;51.148;13.738;2023-09-19T16:22:49;23.60;92.00
25250;DHT22;13201;51.148;13.738;2023-09-19T16:25:14;23.60;92.00
25250;DHT22;13201;51.148;13.738;2023-09-19T16:27:40;23.40;92.30
25250;DHT22;13201;51.148;13.738;2023-09-19T16:30:07;23.20;92.70
25250;DHT22;13201;51.148;13.738;2023-09-19T16:32:35;23.40;93.10
25250;DHT22;13201;51.148;13.738;2023-09-19T16:35:02;23.30;92.70
25250;DHT22;13201;51.148;13.738;2023-09-19T16:37:28;23.20;93.10